RYR25PN EDHL-LEPA
Flight info
| Callsign | RYR25PN |
|---|---|
| Flight time | N/A |
| Altitude | 35000 |
| Route | HAM2A HAM L23 ESTAD N850 NIE DCT BOMBI/N0449F360 DCT GIGET DCT ABUKA/N0451F370 DCT BANUX/N0449F360 DCT KRH DCT NATOR/N0452F370 DCT LUTIX DCT BENOT DCT NEMOS DCT GEVEA DCT INCUS DCT BALSI DCT RETNO DCT TUPOX DCT MTG DCT DIVKO DCT VATIR DCT PIVUS DCT BODEQ DCT VERSO L129 LUNIK LUNIK4M |
| Aircraft | A320/M-SDE2FGHIJ1RWY/SB1 |
Departure
| Time | 2026-05-08 12:05 |
|---|---|
| Airport | Lübeck Blankensee Airport (EDHL) |
Arrival
| Time | N/A |
|---|---|
| Airport | Palma de Mallorca Airport (LEPA) |
| Time | Latitude | Longitude | Altitude | Speed | Heading |
|---|---|---|---|---|---|
| 2026-05-08 11:51 | 53.80463 | 10.70247 | 58 ft | 0 kts | 321° |
| 2026-05-08 11:57 | 53.80460 | 10.70251 | 52 ft | 2 kts | 321° |
| 2026-05-08 11:58 | 53.80446 | 10.70269 | 50 ft | 2 kts | 321° |
| 2026-05-08 11:58 | 53.80433 | 10.70287 | 51 ft | 2 kts | 321° |
| 2026-05-08 11:58 | 53.80424 | 10.70310 | 50 ft | 2 kts | 281° |
| 2026-05-08 11:59 | 53.80426 | 10.70339 | 52 ft | 0 kts | 250° |
| 2026-05-08 12:02 | 53.80415 | 10.70286 | 55 ft | 10 kts | 253° |
| 2026-05-08 12:02 | 53.80395 | 10.70179 | 55 ft | 8 kts | 252° |
| 2026-05-08 12:03 | 53.80371 | 10.70127 | 56 ft | 4 kts | 194° |
| 2026-05-08 12:03 | 53.80351 | 10.70128 | 58 ft | 2 kts | 173° |
| 2026-05-08 12:03 | 53.80329 | 10.70133 | 55 ft | 7 kts | 173° |
| 2026-05-08 12:03 | 53.80262 | 10.70152 | 59 ft | 12 kts | 167° |
| 2026-05-08 12:04 | 53.80203 | 10.70187 | 53 ft | 6 kts | 120° |
| 2026-05-08 12:04 | 53.80206 | 10.70216 | 56 ft | 0 kts | 73° |
| 2026-05-08 12:04 | 53.80222 | 10.70305 | 55 ft | 35 kts | 72° |
| 2026-05-08 12:04 | 53.80376 | 10.71106 | 55 ft | 104 kts | 71° |
| 2026-05-08 12:05 | 53.80657 | 10.72560 | 173 ft | 144 kts | 72° |
| 2026-05-08 12:05 | 53.80972 | 10.74143 | 926 ft | 143 kts | 72° |
| 2026-05-08 12:05 | 53.81284 | 10.75777 | 1498 ft | 154 kts | 73° |
| 2026-05-08 12:05 | 53.81630 | 10.77636 | 1823 ft | 177 kts | 74° |
| 2026-05-08 12:06 | 53.82031 | 10.79761 | 2106 ft | 200 kts | 72° |
| 2026-05-08 12:06 | 53.82487 | 10.82143 | 2591 ft | 220 kts | 72° |
| 2026-05-08 12:06 | 53.82963 | 10.84622 | 3379 ft | 224 kts | 73° |
| 2026-05-08 12:06 | 53.83387 | 10.87174 | 4186 ft | 227 kts | 86° |
| 2026-05-08 12:07 | 53.83020 | 10.89745 | 4969 ft | 231 kts | 124° |
| 2026-05-08 12:07 | 53.81724 | 10.91347 | 5758 ft | 239 kts | 163° |
| 2026-05-08 12:07 | 53.80063 | 10.91472 | 6523 ft | 248 kts | 184° |
| 2026-05-08 12:07 | 53.78355 | 10.90850 | 7282 ft | 254 kts | 199° |
| 2026-05-08 12:08 | 53.76879 | 10.89152 | 8028 ft | 263 kts | 224° |
| 2026-05-08 12:08 | 53.75804 | 10.86579 | 8626 ft | 277 kts | 244° |
| 2026-05-08 12:08 | 53.75264 | 10.83355 | 9204 ft | 290 kts | 259° |
| 2026-05-08 12:08 | 53.74930 | 10.80028 | 10025 ft | 292 kts | 259° |
| 2026-05-08 12:09 | 53.74570 | 10.76616 | 10704 ft | 301 kts | 259° |
| 2026-05-08 12:09 | 53.74180 | 10.73006 | 10918 ft | 324 kts | 259° |
| 2026-05-08 12:09 | 53.73762 | 10.69129 | 11168 ft | 344 kts | 259° |
| 2026-05-08 12:09 | 53.73334 | 10.65106 | 11746 ft | 351 kts | 259° |
| 2026-05-08 12:10 | 53.72902 | 10.61026 | 12448 ft | 355 kts | 259° |
| 2026-05-08 12:10 | 53.72464 | 10.56897 | 13163 ft | 358 kts | 259° |
| 2026-05-08 12:10 | 53.72023 | 10.52731 | 13866 ft | 361 kts | 260° |
| 2026-05-08 12:10 | 53.71583 | 10.48584 | 14503 ft | 364 kts | 260° |
| 2026-05-08 12:11 | 53.71135 | 10.44363 | 15148 ft | 366 kts | 259° |
| 2026-05-08 12:11 | 53.70685 | 10.40129 | 15839 ft | 366 kts | 259° |
| 2026-05-08 12:11 | 53.70229 | 10.35877 | 16460 ft | 369 kts | 259° |
| 2026-05-08 12:11 | 53.69765 | 10.31592 | 17080 ft | 371 kts | 259° |
| 2026-05-08 12:12 | 53.69300 | 10.27337 | 17642 ft | 375 kts | 259° |
| 2026-05-08 12:12 | 53.68822 | 10.22987 | 18300 ft | 377 kts | 259° |
| 2026-05-08 12:12 | 53.68119 | 10.18731 | 18921 ft | 377 kts | 249° |
| 2026-05-08 12:12 | 53.67116 | 10.14604 | 19431 ft | 380 kts | 248° |
| 2026-05-08 12:13 | 53.66088 | 10.10454 | 19932 ft | 384 kts | 248° |
| 2026-05-08 12:13 | 53.65062 | 10.06334 | 20469 ft | 386 kts | 248° |
| 2026-05-08 12:13 | 53.64020 | 10.02157 | 21046 ft | 387 kts | 248° |
| 2026-05-08 12:13 | 53.62970 | 9.97948 | 21531 ft | 390 kts | 248° |
| 2026-05-08 12:14 | 53.61905 | 9.93692 | 21981 ft | 394 kts | 248° |
| 2026-05-08 12:14 | 53.60837 | 9.89429 | 22484 ft | 396 kts | 248° |
| 2026-05-08 12:14 | 53.59774 | 9.85184 | 22995 ft | 398 kts | 248° |
| 2026-05-08 12:14 | 53.58692 | 9.80867 | 23440 ft | 401 kts | 248° |
| 2026-05-08 12:15 | 53.57598 | 9.76511 | 23876 ft | 403 kts | 248° |
| 2026-05-08 12:15 | 53.56501 | 9.72151 | 24243 ft | 405 kts | 248° |
| 2026-05-08 12:15 | 53.55405 | 9.67818 | 24614 ft | 407 kts | 246° |
| 2026-05-08 12:15 | 53.53991 | 9.63678 | 24960 ft | 411 kts | 234° |
| 2026-05-08 12:16 | 53.52056 | 9.60121 | 25306 ft | 415 kts | 222° |
| 2026-05-08 12:16 | 53.49654 | 9.57325 | 25651 ft | 420 kts | 210° |
| 2026-05-08 12:16 | 53.46933 | 9.55485 | 25986 ft | 426 kts | 197° |
| 2026-05-08 12:16 | 53.43990 | 9.54603 | 26314 ft | 430 kts | 189° |
| 2026-05-08 12:17 | 53.41016 | 9.53961 | 26624 ft | 432 kts | 190° |
| 2026-05-08 12:17 | 53.38027 | 9.53315 | 26945 ft | 434 kts | 190° |
| 2026-05-08 12:17 | 53.35048 | 9.52670 | 27243 ft | 436 kts | 190° |
| 2026-05-08 12:17 | 53.32028 | 9.52019 | 27556 ft | 438 kts | 190° |
| 2026-05-08 12:18 | 53.29004 | 9.51367 | 27858 ft | 439 kts | 190° |
| 2026-05-08 12:18 | 53.25962 | 9.50713 | 28149 ft | 441 kts | 190° |
| 2026-05-08 12:18 | 53.22897 | 9.50061 | 28440 ft | 443 kts | 190° |
| 2026-05-08 12:18 | 53.19855 | 9.49416 | 28709 ft | 445 kts | 190° |
| 2026-05-08 12:19 | 53.16782 | 9.48762 | 28971 ft | 446 kts | 190° |
| 2026-05-08 12:19 | 53.13696 | 9.48107 | 29226 ft | 448 kts | 190° |
| 2026-05-08 12:19 | 53.10597 | 9.47450 | 29463 ft | 449 kts | 190° |
| 2026-05-08 12:19 | 53.07475 | 9.46787 | 29701 ft | 451 kts | 190° |
| 2026-05-08 12:20 | 53.04373 | 9.46125 | 29957 ft | 451 kts | 190° |
| 2026-05-08 12:20 | 53.01282 | 9.45465 | 30284 ft | 450 kts | 190° |
| 2026-05-08 12:20 | 52.98171 | 9.44799 | 30563 ft | 449 kts | 190° |
| 2026-05-08 12:20 | 52.95050 | 9.44130 | 30836 ft | 448 kts | 190° |
| 2026-05-08 12:21 | 52.91954 | 9.43464 | 31114 ft | 448 kts | 190° |
| 2026-05-08 12:21 | 52.88901 | 9.42809 | 31388 ft | 447 kts | 190° |
| 2026-05-08 12:21 | 52.85822 | 9.42152 | 31664 ft | 445 kts | 190° |
| 2026-05-08 12:21 | 52.82739 | 9.41496 | 31964 ft | 444 kts | 190° |
| 2026-05-08 12:22 | 52.79670 | 9.40840 | 32243 ft | 443 kts | 190° |
| 2026-05-08 12:22 | 52.76602 | 9.40188 | 32522 ft | 443 kts | 190° |
| 2026-05-08 12:22 | 52.73576 | 9.39548 | 32792 ft | 442 kts | 190° |
| 2026-05-08 12:22 | 52.70548 | 9.38904 | 33062 ft | 441 kts | 190° |
| 2026-05-08 12:23 | 52.67481 | 9.38251 | 33325 ft | 440 kts | 190° |
| 2026-05-08 12:23 | 52.64455 | 9.37611 | 33592 ft | 440 kts | 190° |
| 2026-05-08 12:23 | 52.61401 | 9.36964 | 33864 ft | 439 kts | 190° |
| 2026-05-08 12:23 | 52.58407 | 9.36295 | 34137 ft | 438 kts | 191° |
| 2026-05-08 12:24 | 52.55371 | 9.35584 | 34373 ft | 437 kts | 191° |
| 2026-05-08 12:24 | 52.52367 | 9.34865 | 34581 ft | 437 kts | 191° |
| 2026-05-08 12:24 | 52.49365 | 9.34143 | 34783 ft | 437 kts | 191° |
| 2026-05-08 12:24 | 52.46368 | 9.33424 | 34974 ft | 437 kts | 191° |
| 2026-05-08 12:25 | 52.43322 | 9.32701 | 35128 ft | 438 kts | 191° |
| 2026-05-08 12:25 | 52.40303 | 9.31991 | 35168 ft | 439 kts | 191° |
| 2026-05-08 12:25 | 52.34269 | 9.30586 | 35164 ft | 438 kts | 191° |
| 2026-05-08 12:26 | 52.28260 | 9.29195 | 35165 ft | 438 kts | 191° |
| 2026-05-08 12:26 | 52.22216 | 9.27790 | 35166 ft | 438 kts | 191° |
| 2026-05-08 12:27 | 52.16169 | 9.26381 | 35167 ft | 438 kts | 191° |
| 2026-05-08 12:27 | 52.10127 | 9.24992 | 35159 ft | 438 kts | 191° |
| 2026-05-08 12:28 | 52.04082 | 9.23608 | 35160 ft | 438 kts | 191° |
| 2026-05-08 12:28 | 51.98045 | 9.22236 | 35169 ft | 438 kts | 191° |
| 2026-05-08 12:29 | 51.92030 | 9.20866 | 35157 ft | 438 kts | 191° |
| 2026-05-08 12:29 | 51.85977 | 9.19486 | 35162 ft | 438 kts | 191° |
| 2026-05-08 12:30 | 51.80973 | 9.18342 | 35165 ft | 438 kts | 191° |
| 2026-05-08 12:30 | 51.74938 | 9.16970 | 35165 ft | 437 kts | 191° |
| 2026-05-08 12:31 | 51.68907 | 9.15603 | 35162 ft | 437 kts | 191° |
| 2026-05-08 12:31 | 51.62889 | 9.14237 | 35147 ft | 437 kts | 191° |
| 2026-05-08 12:32 | 51.56884 | 9.12898 | 35153 ft | 437 kts | 191° |
| 2026-05-08 12:32 | 51.50843 | 9.11551 | 35154 ft | 437 kts | 191° |
| 2026-05-08 12:33 | 51.44803 | 9.10199 | 35149 ft | 437 kts | 191° |
| 2026-05-08 12:33 | 51.38790 | 9.08852 | 35150 ft | 437 kts | 191° |
| 2026-05-08 12:34 | 51.32786 | 9.07524 | 35155 ft | 437 kts | 191° |
| 2026-05-08 12:34 | 51.26744 | 9.06182 | 35157 ft | 437 kts | 191° |
| 2026-05-08 12:35 | 51.20758 | 9.04855 | 35147 ft | 437 kts | 191° |
| 2026-05-08 12:35 | 51.14731 | 9.03522 | 35152 ft | 436 kts | 191° |
| 2026-05-08 12:36 | 51.08692 | 9.02196 | 35155 ft | 437 kts | 191° |
| 2026-05-08 12:36 | 51.02699 | 9.00882 | 35154 ft | 436 kts | 191° |
| 2026-05-08 12:37 | 50.96666 | 8.99563 | 35146 ft | 436 kts | 191° |
| 2026-05-08 12:37 | 50.90655 | 8.98240 | 35147 ft | 436 kts | 191° |
| 2026-05-08 12:38 | 50.84634 | 8.96919 | 35142 ft | 436 kts | 191° |
| 2026-05-08 12:38 | 50.78643 | 8.95612 | 35138 ft | 436 kts | 190° |
| 2026-05-08 12:39 | 50.72626 | 8.94317 | 35140 ft | 436 kts | 190° |
| 2026-05-08 12:39 | 50.66617 | 8.93024 | 35136 ft | 436 kts | 191° |
| 2026-05-08 12:40 | 50.60602 | 8.91723 | 35129 ft | 436 kts | 190° |
| 2026-05-08 12:40 | 50.54599 | 8.90429 | 35131 ft | 436 kts | 190° |
| 2026-05-08 12:41 | 50.48582 | 8.89151 | 35122 ft | 435 kts | 190° |
| 2026-05-08 12:41 | 50.42589 | 8.87866 | 35119 ft | 435 kts | 190° |
| 2026-05-08 12:42 | 50.36621 | 8.86572 | 35122 ft | 435 kts | 190° |
| 2026-05-08 12:42 | 50.30595 | 8.85289 | 35106 ft | 435 kts | 190° |
| 2026-05-08 12:43 | 50.24614 | 8.84026 | 35107 ft | 435 kts | 190° |
| 2026-05-08 12:43 | 50.18597 | 8.82754 | 35106 ft | 435 kts | 190° |
| 2026-05-08 12:44 | 50.12611 | 8.81480 | 35104 ft | 435 kts | 190° |
| 2026-05-08 12:44 | 50.06626 | 8.80211 | 35096 ft | 435 kts | 190° |
| 2026-05-08 12:45 | 50.00632 | 8.78963 | 35098 ft | 435 kts | 189° |
| 2026-05-08 12:45 | 49.94625 | 8.77725 | 35101 ft | 435 kts | 189° |
| 2026-05-08 12:46 | 49.88593 | 8.76485 | 35106 ft | 435 kts | 189° |
| 2026-05-08 12:46 | 49.82610 | 8.75243 | 35105 ft | 435 kts | 189° |
| 2026-05-08 12:47 | 49.76618 | 8.74002 | 35102 ft | 435 kts | 189° |
| 2026-05-08 12:47 | 49.70610 | 8.72768 | 35098 ft | 436 kts | 189° |
| 2026-05-08 12:48 | 49.64603 | 8.71542 | 35103 ft | 436 kts | 189° |
| 2026-05-08 12:48 | 49.58570 | 8.70325 | 35096 ft | 436 kts | 189° |
| 2026-05-08 12:49 | 49.52564 | 8.69135 | 35104 ft | 436 kts | 189° |
| 2026-05-08 12:49 | 49.46580 | 8.67977 | 35103 ft | 436 kts | 186° |
| 2026-05-08 12:50 | 49.40501 | 8.67694 | 35096 ft | 437 kts | 183° |
| 2026-05-08 12:50 | 49.34416 | 8.67469 | 35094 ft | 437 kts | 183° |
| 2026-05-08 12:51 | 49.25290 | 8.67122 | 35085 ft | 437 kts | 183° |
| 2026-05-08 12:52 | 49.19216 | 8.66898 | 35063 ft | 437 kts | 183° |
| 2026-05-08 12:52 | 49.10145 | 8.65672 | 35061 ft | 435 kts | 198° |
| 2026-05-08 12:53 | 49.04604 | 8.62169 | 35069 ft | 433 kts | 206° |
| 2026-05-08 12:53 | 48.99084 | 8.58508 | 35061 ft | 434 kts | 199° |
| 2026-05-08 12:54 | 48.93174 | 8.56422 | 35050 ft | 435 kts | 193° |
| 2026-05-08 12:54 | 48.87276 | 8.54528 | 35055 ft | 435 kts | 193° |
| 2026-05-08 12:55 | 48.81359 | 8.52628 | 35050 ft | 435 kts | 193° |
| 2026-05-08 12:55 | 48.75409 | 8.50705 | 35041 ft | 435 kts | 194° |
| 2026-05-08 12:56 | 48.69481 | 8.48794 | 35045 ft | 435 kts | 194° |
| 2026-05-08 12:56 | 48.63554 | 8.46893 | 35050 ft | 435 kts | 194° |
| 2026-05-08 12:57 | 48.57648 | 8.45004 | 35046 ft | 435 kts | 193° |
| 2026-05-08 12:57 | 48.51740 | 8.43128 | 35047 ft | 435 kts | 194° |
| 2026-05-08 12:58 | 48.45795 | 8.41235 | 35046 ft | 435 kts | 194° |
| 2026-05-08 12:58 | 48.39900 | 8.39358 | 35044 ft | 435 kts | 194° |
| 2026-05-08 12:59 | 48.33973 | 8.37481 | 35035 ft | 435 kts | 194° |
| 2026-05-08 12:59 | 48.28032 | 8.35609 | 35040 ft | 435 kts | 194° |
| 2026-05-08 13:00 | 48.22099 | 8.33738 | 35037 ft | 435 kts | 194° |
| 2026-05-08 13:00 | 48.16343 | 8.31190 | 35037 ft | 431 kts | 207° |
| 2026-05-08 13:01 | 48.11225 | 8.26558 | 35029 ft | 429 kts | 214° |
| 2026-05-08 13:01 | 48.06215 | 8.21711 | 35028 ft | 429 kts | 214° |
| 2026-05-08 13:02 | 48.01221 | 8.16912 | 35032 ft | 429 kts | 214° |
| 2026-05-08 13:02 | 47.96191 | 8.12080 | 35035 ft | 429 kts | 214° |
| 2026-05-08 13:03 | 47.91161 | 8.07257 | 35032 ft | 429 kts | 214° |
| 2026-05-08 13:03 | 47.86140 | 8.02464 | 35035 ft | 429 kts | 214° |
| 2026-05-08 13:04 | 47.81109 | 7.97679 | 35035 ft | 428 kts | 214° |
| 2026-05-08 13:04 | 47.76115 | 7.92928 | 35036 ft | 428 kts | 214° |
| 2026-05-08 13:05 | 47.71111 | 7.88169 | 35247 ft | 429 kts | 214° |
| 2026-05-08 13:05 | 47.68596 | 7.85784 | 35452 ft | 429 kts | 214° |
| 2026-05-08 13:05 | 47.66082 | 7.83407 | 35654 ft | 429 kts | 214° |
| 2026-05-08 13:06 | 47.63561 | 7.81032 | 35843 ft | 429 kts | 214° |
| 2026-05-08 13:06 | 47.61044 | 7.78663 | 36009 ft | 429 kts | 214° |
| 2026-05-08 13:06 | 47.56029 | 7.73937 | 36030 ft | 429 kts | 214° |
| 2026-05-08 13:07 | 47.50986 | 7.69202 | 36031 ft | 429 kts | 214° |
| 2026-05-08 13:07 | 47.45937 | 7.64466 | 36030 ft | 429 kts | 214° |
| 2026-05-08 13:08 | 47.40893 | 7.59735 | 36030 ft | 429 kts | 214° |
| 2026-05-08 13:08 | 47.35851 | 7.55022 | 36029 ft | 430 kts | 214° |
| 2026-05-08 13:09 | 47.30787 | 7.50312 | 36026 ft | 430 kts | 214° |
| 2026-05-08 13:09 | 47.25731 | 7.45618 | 36031 ft | 430 kts | 214° |
| 2026-05-08 13:10 | 47.20666 | 7.40929 | 36023 ft | 430 kts | 214° |
| 2026-05-08 13:10 | 47.15896 | 7.35698 | 36020 ft | 427 kts | 227° |
| 2026-05-08 13:11 | 47.12158 | 7.29018 | 36016 ft | 426 kts | 233° |
| 2026-05-08 13:11 | 47.08459 | 7.22202 | 36022 ft | 427 kts | 233° |
| 2026-05-08 13:12 | 47.04742 | 7.15400 | 36034 ft | 427 kts | 233° |
| 2026-05-08 13:12 | 47.01027 | 7.08599 | 36029 ft | 428 kts | 233° |
| 2026-05-08 13:13 | 46.97307 | 7.01806 | 36033 ft | 427 kts | 233° |
| 2026-05-08 13:13 | 46.93584 | 6.95021 | 36024 ft | 427 kts | 233° |
| 2026-05-08 13:14 | 46.89529 | 6.88650 | 36021 ft | 431 kts | 222° |
| 2026-05-08 13:14 | 46.84859 | 6.83100 | 36022 ft | 432 kts | 222° |
| 2026-05-08 13:15 | 46.80223 | 6.77580 | 36025 ft | 432 kts | 222° |
| 2026-05-08 13:15 | 46.75554 | 6.72032 | 36012 ft | 433 kts | 222° |
| 2026-05-08 13:16 | 46.70868 | 6.66477 | 36020 ft | 433 kts | 222° |
| 2026-05-08 13:16 | 46.66205 | 6.60957 | 36033 ft | 433 kts | 222° |
| 2026-05-08 13:17 | 46.61527 | 6.55432 | 36040 ft | 433 kts | 222° |
| 2026-05-08 13:17 | 46.56829 | 6.49907 | 36042 ft | 433 kts | 222° |
| 2026-05-08 13:18 | 46.52170 | 6.44437 | 36046 ft | 433 kts | 222° |
| 2026-05-08 13:18 | 46.48245 | 6.39839 | 36046 ft | 433 kts | 222° |
| 2026-05-08 13:19 | 46.43577 | 6.34388 | 36039 ft | 433 kts | 222° |
| 2026-05-08 13:19 | 46.38869 | 6.28892 | 36020 ft | 432 kts | 223° |
| 2026-05-08 13:20 | 46.34195 | 6.23455 | 36028 ft | 432 kts | 222° |
| 2026-05-08 13:20 | 46.29516 | 6.18016 | 36030 ft | 431 kts | 222° |
| 2026-05-08 13:21 | 46.24340 | 6.13551 | 36035 ft | 440 kts | 204° |
| 2026-05-08 13:21 | 46.18303 | 6.11650 | 36012 ft | 447 kts | 193° |
| 2026-05-08 13:22 | 46.12147 | 6.10301 | 36014 ft | 448 kts | 193° |
| 2026-05-08 13:22 | 46.05989 | 6.08917 | 35990 ft | 448 kts | 193° |
| 2026-05-08 13:23 | 45.99815 | 6.07533 | 35966 ft | 448 kts | 194° |
| 2026-05-08 13:23 | 45.93665 | 6.06171 | 35980 ft | 448 kts | 193° |
| 2026-05-08 13:24 | 45.87491 | 6.04815 | 35992 ft | 449 kts | 193° |
| 2026-05-08 13:24 | 45.81295 | 6.03466 | 35999 ft | 449 kts | 193° |
| 2026-05-08 13:25 | 45.75142 | 6.02106 | 35982 ft | 450 kts | 194° |
| 2026-05-08 13:25 | 45.68954 | 6.00721 | 35990 ft | 450 kts | 194° |
| 2026-05-08 13:26 | 45.62747 | 5.99345 | 35996 ft | 450 kts | 194° |
| 2026-05-08 13:26 | 45.56562 | 5.97992 | 35988 ft | 451 kts | 194° |
| 2026-05-08 13:27 | 45.50306 | 5.96630 | 35993 ft | 451 kts | 194° |
| 2026-05-08 13:27 | 45.44140 | 5.95139 | 35996 ft | 449 kts | 197° |
| 2026-05-08 13:28 | 45.38066 | 5.93212 | 35993 ft | 448 kts | 199° |
| 2026-05-08 13:28 | 45.31967 | 5.91161 | 36007 ft | 449 kts | 199° |
| 2026-05-08 13:29 | 45.25876 | 5.89221 | 36013 ft | 449 kts | 198° |
| 2026-05-08 13:29 | 45.19782 | 5.87353 | 36015 ft | 449 kts | 198° |
| 2026-05-08 13:30 | 45.13676 | 5.85484 | 36028 ft | 449 kts | 198° |
| 2026-05-08 13:30 | 45.07579 | 5.83605 | 36048 ft | 449 kts | 198° |
| 2026-05-08 13:31 | 45.01519 | 5.81721 | 36014 ft | 447 kts | 198° |
| 2026-05-08 13:31 | 44.95416 | 5.79836 | 36034 ft | 447 kts | 198° |
| 2026-05-08 13:32 | 44.89362 | 5.77976 | 36043 ft | 446 kts | 198° |
| 2026-05-08 13:32 | 44.83320 | 5.76118 | 36023 ft | 445 kts | 198° |
| 2026-05-08 13:33 | 44.77273 | 5.74262 | 36041 ft | 444 kts | 198° |
| 2026-05-08 13:33 | 44.71235 | 5.72419 | 36043 ft | 444 kts | 198° |
| 2026-05-08 13:34 | 44.65210 | 5.70590 | 36037 ft | 443 kts | 198° |
| 2026-05-08 13:34 | 44.59153 | 5.68756 | 36044 ft | 442 kts | 198° |
| 2026-05-08 13:35 | 44.53184 | 5.66944 | 36040 ft | 441 kts | 198° |
| 2026-05-08 13:35 | 44.47166 | 5.65125 | 36023 ft | 441 kts | 198° |
| 2026-05-08 13:36 | 44.41213 | 5.63334 | 36035 ft | 440 kts | 198° |
| 2026-05-08 13:36 | 44.35376 | 5.60934 | 36038 ft | 431 kts | 207° |
| 2026-05-08 13:37 | 44.29801 | 5.57857 | 36033 ft | 431 kts | 207° |
| 2026-05-08 13:37 | 44.24227 | 5.54801 | 36028 ft | 430 kts | 207° |
| 2026-05-08 13:38 | 44.18705 | 5.51787 | 36035 ft | 428 kts | 207° |
| 2026-05-08 13:38 | 44.13147 | 5.48760 | 36038 ft | 428 kts | 207° |
| 2026-05-08 13:39 | 44.07613 | 5.45751 | 36025 ft | 427 kts | 207° |
| 2026-05-08 13:39 | 44.02072 | 5.42745 | 36032 ft | 426 kts | 207° |
| 2026-05-08 13:40 | 43.96597 | 5.39783 | 36032 ft | 425 kts | 207° |
| 2026-05-08 13:40 | 43.91055 | 5.36791 | 36027 ft | 425 kts | 207° |
| 2026-05-08 13:41 | 43.85569 | 5.33819 | 36022 ft | 424 kts | 207° |
| 2026-05-08 13:41 | 43.80104 | 5.30862 | 36032 ft | 423 kts | 206° |
| 2026-05-08 13:42 | 43.74596 | 5.27893 | 36035 ft | 423 kts | 206° |
| 2026-05-08 13:42 | 43.69096 | 5.24940 | 36020 ft | 423 kts | 206° |
| 2026-05-08 13:43 | 43.63612 | 5.22007 | 36034 ft | 422 kts | 206° |
| 2026-05-08 13:43 | 43.58160 | 5.19097 | 36034 ft | 422 kts | 206° |
| 2026-05-08 13:44 | 43.52672 | 5.16165 | 36037 ft | 422 kts | 206° |
| 2026-05-08 13:44 | 43.47195 | 5.13244 | 36030 ft | 422 kts | 206° |
| 2026-05-08 13:45 | 43.41736 | 5.10340 | 36034 ft | 422 kts | 206° |
| 2026-05-08 13:45 | 43.36556 | 5.06744 | 36034 ft | 414 kts | 219° |
| 2026-05-08 13:46 | 43.31820 | 5.02244 | 36026 ft | 414 kts | 218° |
| 2026-05-08 13:46 | 43.27086 | 4.97783 | 36035 ft | 413 kts | 218° |
| 2026-05-08 13:47 | 43.22326 | 4.93318 | 36046 ft | 413 kts | 218° |
| 2026-05-08 13:47 | 43.17595 | 4.88891 | 36050 ft | 413 kts | 218° |
| 2026-05-08 13:48 | 43.12832 | 4.84429 | 36049 ft | 412 kts | 218° |
| 2026-05-08 13:48 | 43.08094 | 4.80006 | 36044 ft | 412 kts | 217° |
| 2026-05-08 13:49 | 43.03248 | 4.75884 | 36044 ft | 414 kts | 212° |
| 2026-05-08 13:49 | 42.98204 | 4.72057 | 36046 ft | 414 kts | 212° |
| 2026-05-08 13:50 | 42.93166 | 4.68252 | 36045 ft | 413 kts | 212° |
| 2026-05-08 13:50 | 42.88162 | 4.64466 | 36039 ft | 413 kts | 212° |
| 2026-05-08 13:51 | 42.83143 | 4.60677 | 36041 ft | 413 kts | 212° |
| 2026-05-08 13:51 | 42.78084 | 4.56867 | 36054 ft | 413 kts | 211° |
| 2026-05-08 13:52 | 42.73061 | 4.53090 | 36050 ft | 413 kts | 212° |
| 2026-05-08 13:52 | 42.68052 | 4.49327 | 36048 ft | 413 kts | 211° |
| 2026-05-08 13:53 | 42.63003 | 4.45553 | 36045 ft | 413 kts | 211° |
| 2026-05-08 13:53 | 42.57966 | 4.41787 | 36040 ft | 413 kts | 212° |
| 2026-05-08 13:54 | 42.52931 | 4.38015 | 36027 ft | 413 kts | 211° |
| 2026-05-08 13:54 | 42.47928 | 4.34286 | 36030 ft | 413 kts | 211° |
| 2026-05-08 13:55 | 42.42889 | 4.30542 | 36029 ft | 413 kts | 211° |
| 2026-05-08 13:56 | 42.35341 | 4.24949 | 36032 ft | 413 kts | 211° |
| 2026-05-08 13:56 | 42.30295 | 4.21218 | 36021 ft | 413 kts | 211° |
| 2026-05-08 13:57 | 42.25231 | 4.17473 | 36030 ft | 414 kts | 211° |
| 2026-05-08 13:57 | 42.20206 | 4.13766 | 36016 ft | 415 kts | 211° |
| 2026-05-08 13:58 | 42.15118 | 4.10007 | 36022 ft | 416 kts | 211° |
| 2026-05-08 13:58 | 42.10045 | 4.06276 | 36019 ft | 417 kts | 211° |
| 2026-05-08 13:59 | 42.04961 | 4.02548 | 36023 ft | 417 kts | 211° |
| 2026-05-08 13:59 | 41.99855 | 3.98809 | 36020 ft | 418 kts | 211° |
| 2026-05-08 14:00 | 41.94750 | 3.95080 | 36026 ft | 418 kts | 209° |
| 2026-05-08 14:00 | 41.89248 | 3.92614 | 36025 ft | 424 kts | 193° |
| 2026-05-08 14:01 | 41.83440 | 3.91295 | 36040 ft | 423 kts | 193° |
| 2026-05-08 14:01 | 41.77633 | 3.89960 | 36046 ft | 423 kts | 193° |
| 2026-05-08 14:02 | 41.71867 | 3.88631 | 36049 ft | 423 kts | 193° |
| 2026-05-08 14:02 | 41.66074 | 3.87290 | 36051 ft | 422 kts | 193° |
| 2026-05-08 14:03 | 41.60286 | 3.85967 | 36049 ft | 422 kts | 193° |
| 2026-05-08 14:03 | 41.54508 | 3.84649 | 36046 ft | 421 kts | 193° |
| 2026-05-08 14:04 | 41.48736 | 3.83322 | 36035 ft | 420 kts | 193° |
| 2026-05-08 14:04 | 41.42979 | 3.81997 | 36039 ft | 420 kts | 193° |
| 2026-05-08 14:05 | 41.38192 | 3.80903 | 36041 ft | 420 kts | 193° |
| 2026-05-08 14:05 | 41.32434 | 3.79593 | 36047 ft | 420 kts | 193° |
| 2026-05-08 14:06 | 41.26672 | 3.78285 | 36031 ft | 420 kts | 193° |
| 2026-05-08 14:06 | 41.20918 | 3.76978 | 36034 ft | 420 kts | 193° |
| 2026-05-08 14:07 | 41.15190 | 3.75537 | 36031 ft | 417 kts | 200° |
| 2026-05-08 14:07 | 41.09791 | 3.72850 | 36033 ft | 414 kts | 204° |
| 2026-05-08 14:08 | 41.04417 | 3.70080 | 36022 ft | 414 kts | 205° |
| 2026-05-08 14:08 | 40.99048 | 3.67322 | 36030 ft | 414 kts | 204° |
| 2026-05-08 14:09 | 40.93673 | 3.64566 | 36037 ft | 414 kts | 205° |
| 2026-05-08 14:09 | 40.88303 | 3.61814 | 36037 ft | 414 kts | 204° |
| 2026-05-08 14:10 | 40.82940 | 3.59069 | 36030 ft | 413 kts | 205° |
| 2026-05-08 14:10 | 40.77550 | 3.56310 | 36032 ft | 413 kts | 205° |
| 2026-05-08 14:11 | 40.72201 | 3.53579 | 36034 ft | 413 kts | 205° |
| 2026-05-08 14:11 | 40.66838 | 3.50854 | 36035 ft | 413 kts | 205° |
| 2026-05-08 14:12 | 40.61498 | 3.48138 | 36037 ft | 412 kts | 205° |
| 2026-05-08 14:12 | 40.56153 | 3.45418 | 35923 ft | 413 kts | 205° |
| 2026-05-08 14:12 | 40.53450 | 3.44044 | 34929 ft | 419 kts | 204° |
| 2026-05-08 14:13 | 40.50710 | 3.42656 | 33885 ft | 424 kts | 204° |
| 2026-05-08 14:13 | 40.47946 | 3.41262 | 32918 ft | 424 kts | 204° |
| 2026-05-08 14:13 | 40.45180 | 3.40054 | 32036 ft | 425 kts | 197° |
| 2026-05-08 14:13 | 40.42233 | 3.39446 | 30961 ft | 434 kts | 187° |
| 2026-05-08 14:14 | 40.39188 | 3.39494 | 29889 ft | 441 kts | 182° |
| 2026-05-08 14:14 | 40.36121 | 3.39679 | 29201 ft | 435 kts | 182° |
| 2026-05-08 14:14 | 40.33116 | 3.39863 | 28475 ft | 429 kts | 182° |
| 2026-05-08 14:14 | 40.30181 | 3.40042 | 27791 ft | 424 kts | 182° |
| 2026-05-08 14:15 | 40.27231 | 3.40216 | 27109 ft | 420 kts | 182° |
| 2026-05-08 14:15 | 40.24319 | 3.40382 | 26436 ft | 416 kts | 182° |
| 2026-05-08 14:15 | 40.21433 | 3.40544 | 25769 ft | 412 kts | 182° |
| 2026-05-08 14:15 | 40.18608 | 3.40703 | 25104 ft | 409 kts | 182° |
| 2026-05-08 14:16 | 40.15768 | 3.40863 | 24464 ft | 406 kts | 182° |
| 2026-05-08 14:16 | 40.12951 | 3.41020 | 23839 ft | 404 kts | 182° |
| 2026-05-08 14:16 | 40.10156 | 3.41175 | 23199 ft | 400 kts | 182° |
| 2026-05-08 14:16 | 40.07383 | 3.41329 | 22625 ft | 395 kts | 182° |